createdAt,value
2022-10-12T00:01:59.583Z,7.02
2022-10-12T00:05:03.672Z,6.96
2022-10-12T00:08:06.599Z,6.93
2022-10-12T00:11:12.539Z,6.94
2022-10-12T00:14:15.286Z,6.96
2022-10-12T00:17:17.966Z,7.00
2022-10-12T00:20:21.895Z,6.96
2022-10-12T00:23:24.578Z,6.97
2022-10-12T00:26:29.041Z,6.92
2022-10-12T00:29:31.803Z,6.92
2022-10-12T00:32:34.481Z,6.88
2022-10-12T00:35:38.439Z,6.88
2022-10-12T00:38:41.049Z,6.90
2022-10-12T00:41:45.062Z,6.87
2022-10-12T00:44:49.823Z,6.80
2022-10-12T00:47:56.888Z,6.84
2022-10-12T00:51:03.645Z,6.79
2022-10-12T00:54:10.359Z,6.72
2022-10-12T00:57:15.746Z,6.76
2022-10-12T01:00:20.118Z,6.74
2022-10-12T01:03:24.188Z,6.69
2022-10-12T01:06:28.225Z,6.69
2022-10-12T01:09:31.474Z,6.69
2022-10-12T01:12:35.431Z,6.67
2022-10-12T01:15:43.887Z,6.63
2022-10-12T01:18:51.555Z,6.64
2022-10-12T01:22:01.997Z,6.66
2022-10-12T01:25:17.718Z,6.68
2022-10-12T01:28:31.181Z,6.68
2022-10-12T01:31:42.079Z,6.68
2022-10-12T01:34:48.811Z,6.62
2022-10-12T01:37:59.361Z,6.58
2022-10-12T01:41:08.378Z,6.49
2022-10-12T01:44:11.056Z,6.47
2022-10-12T01:47:15.113Z,6.48
2022-10-12T01:50:18.741Z,6.46
2022-10-12T01:53:37.565Z,6.46
2022-10-12T01:56:49.251Z,6.40
2022-10-12T02:00:02.777Z,6.39
2022-10-12T02:03:15.263Z,6.41
2022-10-12T02:06:20.326Z,6.44
2022-10-12T02:09:27.583Z,6.43
2022-10-12T02:12:32.564Z,6.32
2022-10-12T02:15:38.021Z,6.30
2022-10-12T02:18:46.406Z,6.27
2022-10-12T02:21:51.371Z,6.25
2022-10-12T02:24:58.208Z,6.26
2022-10-12T02:28:06.427Z,6.21
2022-10-12T02:31:16.102Z,6.19
2022-10-12T02:34:25.343Z,6.22
2022-10-12T02:37:36.022Z,6.18
2022-10-12T02:40:43.638Z,6.16
2022-10-12T02:43:51.414Z,6.15
2022-10-12T02:46:55.824Z,6.13
2022-10-12T02:50:01.910Z,6.13
2022-10-12T02:53:05.640Z,6.10
2022-10-12T02:56:11.961Z,6.10
2022-10-12T02:59:15.159Z,6.11
2022-10-12T03:02:17.835Z,6.09
2022-10-12T03:05:21.717Z,6.02
2022-10-12T03:08:24.504Z,5.96
2022-10-12T03:11:27.269Z,5.87
2022-10-12T03:14:30.962Z,5.86
2022-10-12T03:17:33.627Z,5.82
2022-10-12T03:20:37.814Z,5.80
2022-10-12T03:23:40.535Z,5.79
2022-10-12T03:26:43.137Z,5.82
2022-10-12T03:29:45.666Z,5.82
2022-10-12T03:32:48.237Z,5.83
2022-10-12T03:35:52.557Z,5.77
2022-10-12T03:38:55.361Z,5.81
2022-10-12T03:41:58.036Z,5.87
2022-10-12T03:45:00.589Z,5.89
2022-10-12T03:48:05.148Z,5.86
2022-10-12T03:51:09.304Z,5.82
2022-10-12T03:54:11.982Z,5.82
2022-10-12T03:57:14.533Z,5.77
2022-10-12T04:00:17.582Z,5.77
2022-10-12T04:03:20.137Z,5.72
2022-10-12T04:06:24.155Z,5.70
2022-10-12T04:09:26.886Z,5.68
2022-10-12T04:12:29.583Z,5.59
2022-10-12T04:15:32.183Z,5.58
2022-10-12T04:18:35.154Z,5.62
2022-10-12T04:21:39.102Z,5.60
2022-10-12T04:24:41.821Z,5.55
2022-10-12T04:27:44.417Z,5.40
2022-10-12T04:30:47.737Z,5.41
2022-10-12T04:33:50.436Z,5.46
2022-10-12T04:36:54.350Z,5.53
2022-10-12T04:39:57.094Z,5.48
2022-10-12T04:42:59.765Z,5.48
2022-10-12T04:46:02.310Z,5.46
2022-10-12T04:49:04.890Z,5.45
2022-10-12T04:52:08.808Z,5.44
2022-10-12T04:55:11.470Z,5.45
2022-10-12T04:58:14.595Z,5.44
2022-10-12T05:01:17.387Z,5.45
2022-10-12T05:04:20.212Z,5.47
2022-10-12T05:07:24.085Z,5.42
2022-10-12T05:10:26.800Z,5.32
2022-10-12T05:13:29.913Z,5.31
2022-10-12T05:16:32.478Z,5.26
2022-10-12T05:19:35.075Z,5.20
2022-10-12T05:22:48.020Z,5.20
2022-10-12T05:25:50.711Z,5.20
2022-10-12T05:28:53.260Z,5.30
2022-10-12T05:31:55.888Z,5.37
2022-10-12T05:34:58.566Z,5.34
2022-10-12T05:38:02.439Z,5.41
2022-10-12T05:41:05.530Z,5.39
2022-10-12T05:44:08.410Z,5.29
2022-10-12T05:47:11.546Z,5.27
2022-10-12T05:50:14.129Z,5.26
2022-10-12T05:53:18.030Z,5.31
2022-10-12T05:56:20.710Z,5.31
2022-10-12T05:59:23.283Z,5.36
2022-10-12T06:02:26.018Z,5.31
2022-10-12T06:05:28.715Z,5.33
2022-10-12T06:08:33.074Z,5.37
2022-10-12T06:11:36.616Z,5.46
2022-10-12T06:14:39.417Z,5.49
2022-10-12T06:17:42.125Z,5.58
2022-10-12T06:20:47.718Z,5.69
2022-10-12T06:23:51.636Z,5.72
2022-10-12T06:26:54.378Z,5.79
2022-10-12T06:29:56.952Z,5.93
2022-10-12T06:32:59.639Z,6.19
2022-10-12T06:36:02.403Z,6.55
2022-10-12T06:39:06.301Z,7.03
2022-10-12T06:42:10.142Z,7.46
2022-10-12T06:45:13.240Z,7.90
2022-10-12T06:48:18.520Z,8.47
2022-10-12T06:51:21.674Z,8.82
2022-10-12T06:54:25.645Z,9.38
2022-10-12T06:57:28.455Z,9.94
2022-10-12T07:00:31.030Z,10.40
2022-10-12T07:03:33.950Z,10.74
2022-10-12T07:06:36.660Z,11.07
2022-10-12T07:09:40.655Z,11.42
2022-10-12T07:12:43.348Z,11.52
2022-10-12T07:15:50.278Z,11.59
2022-10-12T07:18:52.854Z,11.83
2022-10-12T07:21:55.416Z,11.80
2022-10-12T07:24:59.382Z,11.76
2022-10-12T07:28:05.245Z,11.65
2022-10-12T07:31:09.621Z,11.60
2022-10-12T07:34:12.181Z,11.51
2022-10-12T07:37:15.468Z,11.50
2022-10-12T07:40:19.443Z,11.43
2022-10-12T07:43:22.017Z,11.43
2022-10-12T07:46:25.941Z,11.45
2022-10-12T07:49:28.773Z,11.58
2022-10-12T07:52:32.521Z,11.69
2022-10-12T07:55:36.655Z,11.80
2022-10-12T07:58:39.369Z,11.88
2022-10-12T08:01:42.078Z,12.03
2022-10-12T08:04:44.794Z,12.17
2022-10-12T08:07:47.448Z,12.13
2022-10-12T08:10:51.407Z,12.32
2022-10-12T08:13:54.219Z,12.40
2022-10-12T08:16:57.820Z,12.47
2022-10-12T08:20:00.536Z,12.60
2022-10-12T08:23:03.211Z,12.54
2022-10-12T08:26:08.774Z,12.54
2022-10-12T08:29:11.859Z,12.49
2022-10-12T08:32:14.454Z,12.53
2022-10-12T08:35:17.165Z,12.59
2022-10-12T08:38:19.885Z,12.64
2022-10-12T08:41:40.797Z,12.66
2022-10-12T08:45:05.989Z,12.75
2022-10-12T08:48:14.803Z,12.91
2022-10-12T08:51:22.071Z,12.99
2022-10-12T08:54:29.828Z,12.99
2022-10-12T08:57:35.343Z,13.05
2022-10-12T09:00:39.831Z,13.17
2022-10-12T09:03:54.635Z,13.27
2022-10-12T09:07:01.683Z,13.46
2022-10-12T09:10:18.761Z,13.56
2022-10-12T09:13:37.847Z,13.55
2022-10-12T09:16:44.542Z,13.69
2022-10-12T09:19:47.080Z,13.79
2022-10-12T09:22:51.500Z,13.94
2022-10-12T09:25:57.967Z,14.16
2022-10-12T09:29:04.068Z,14.54
2022-10-12T09:32:21.304Z,14.90
2022-10-12T09:35:23.902Z,15.20
2022-10-12T09:38:26.786Z,15.57
2022-10-12T09:41:34.681Z,16.11
2022-10-12T09:44:41.149Z,16.62
2022-10-12T09:47:44.258Z,17.15
2022-10-12T09:50:52.983Z,17.44
2022-10-12T09:53:58.778Z,17.92
2022-10-12T09:57:01.569Z,18.26
2022-10-12T10:00:08.502Z,18.60
2022-10-12T10:03:29.236Z,18.84
2022-10-12T10:06:34.370Z,19.14
2022-10-12T10:09:37.445Z,19.48
2022-10-12T10:12:48.406Z,19.48
2022-10-12T10:16:02.476Z,19.68
2022-10-12T10:19:05.302Z,19.86
2022-10-12T10:22:07.953Z,19.64
2022-10-12T10:25:21.531Z,19.73
2022-10-12T10:28:26.377Z,19.82
2022-10-12T10:31:30.617Z,19.86
2022-10-12T10:34:33.337Z,19.97
2022-10-12T10:37:36.685Z,20.29
2022-10-12T10:40:39.815Z,20.66
2022-10-12T10:43:48.648Z,20.35
2022-10-12T10:46:54.334Z,20.14
2022-10-12T10:49:59.244Z,20.55
2022-10-12T10:53:05.886Z,20.08
2022-10-12T10:56:12.331Z,20.46
2022-10-12T10:59:22.061Z,20.74
2022-10-12T11:02:34.675Z,20.94
2022-10-12T11:05:40.853Z,21.08
2022-10-12T11:08:45.487Z,20.54
2022-10-12T11:11:56.235Z,20.22
2022-10-12T11:15:07.783Z,19.28
2022-10-12T11:18:17.926Z,19.17
2022-10-12T11:21:26.007Z,19.72
2022-10-12T11:24:34.459Z,19.20
2022-10-12T11:27:38.743Z,18.71
2022-10-12T11:30:46.528Z,18.17
2022-10-12T11:33:53.592Z,18.39
2022-10-12T11:37:20.821Z,18.54
2022-10-12T11:40:47.662Z,18.42
2022-10-12T11:43:53.255Z,19.14
2022-10-12T11:47:01.745Z,19.50
2022-10-12T11:50:15.138Z,18.86
2022-10-12T11:53:26.442Z,18.48
2022-10-12T11:56:36.055Z,18.94
2022-10-12T11:59:43.595Z,19.09
2022-10-12T12:02:52.405Z,19.60
2022-10-12T12:05:56.669Z,19.96
2022-10-12T12:09:06.268Z,19.54
2022-10-12T12:12:27.563Z,19.11
2022-10-12T12:15:30.401Z,19.20
2022-10-12T12:18:53.675Z,19.73
2022-10-12T12:22:26.555Z,19.31
2022-10-12T12:25:33.856Z,18.88
2022-10-12T12:28:38.220Z,19.20
2022-10-12T12:31:43.890Z,19.37
2022-10-12T12:35:00.016Z,19.48
2022-10-12T12:38:18.598Z,19.50
2022-10-12T12:41:22.951Z,19.56
2022-10-12T12:44:41.252Z,19.43
2022-10-12T12:47:46.164Z,19.65
2022-10-12T12:51:04.406Z,19.55
2022-10-12T12:54:16.276Z,19.55
2022-10-12T12:57:34.883Z,19.27
2022-10-12T13:04:18.386Z,18.84
2022-10-12T13:07:44.204Z,18.62
2022-10-12T13:11:14.579Z,18.22
2022-10-12T13:14:34.869Z,18.14
2022-10-12T13:18:18.505Z,18.08
2022-10-12T13:21:29.351Z,18.19
2022-10-12T13:24:42.061Z,18.01
2022-10-12T13:27:49.396Z,18.19
2022-10-12T13:30:55.622Z,17.71
2022-10-12T13:34:06.413Z,17.51
2022-10-12T13:37:14.376Z,17.43
2022-10-12T13:40:30.363Z,17.49
2022-10-12T13:43:41.513Z,17.50
2022-10-12T13:46:45.710Z,17.53
2022-10-12T13:49:48.335Z,17.45
2022-10-12T13:52:55.460Z,17.51
2022-10-12T13:56:02.574Z,17.45
2022-10-12T13:59:11.232Z,17.49
2022-10-12T14:02:22.702Z,17.17
2022-10-12T14:05:27.540Z,17.25
2022-10-12T14:08:32.381Z,17.27
2022-10-12T14:11:36.112Z,17.31
2022-10-12T14:14:42.236Z,16.97
2022-10-12T14:17:45.495Z,16.91
2022-10-12T14:20:48.604Z,16.93
2022-10-12T14:23:54.096Z,16.88
2022-10-12T14:27:01.212Z,16.90
2022-10-12T14:30:16.644Z,16.68
2022-10-12T14:33:23.707Z,16.75
2022-10-12T14:36:27.831Z,16.57
2022-10-12T14:39:30.677Z,16.62
2022-10-12T14:42:35.218Z,16.51
2022-10-12T14:45:39.193Z,16.62
2022-10-12T14:48:42.014Z,16.63
2022-10-12T14:51:45.106Z,16.60
2022-10-12T14:54:51.333Z,16.51
2022-10-12T14:57:54.210Z,16.34
2022-10-12T15:00:58.285Z,16.32
2022-10-12T15:04:00.859Z,16.19
2022-10-12T15:07:03.602Z,16.18
2022-10-12T15:10:07.118Z,16.19
2022-10-12T15:13:13.344Z,16.10
2022-10-12T15:16:21.485Z,15.99
2022-10-12T15:19:24.204Z,16.00
2022-10-12T15:22:28.955Z,15.88
2022-10-12T15:25:43.406Z,15.82
2022-10-12T15:28:46.878Z,15.77
2022-10-12T15:31:51.429Z,15.62
2022-10-12T15:34:54.015Z,15.61
2022-10-12T15:37:57.344Z,15.56
2022-10-12T15:40:59.908Z,15.48
2022-10-12T15:44:03.051Z,15.40
2022-10-12T15:47:07.027Z,15.31
2022-10-12T15:50:09.916Z,15.26
2022-10-12T15:53:16.767Z,15.15
2022-10-12T15:56:19.966Z,15.02
2022-10-12T15:59:22.672Z,14.91
2022-10-12T16:02:26.647Z,14.83
2022-10-12T16:05:32.042Z,14.71
2022-10-12T16:08:34.764Z,14.59
2022-10-12T16:11:37.357Z,14.46
2022-10-12T16:14:40.097Z,14.33
2022-10-12T16:17:44.018Z,14.21
2022-10-12T16:20:53.324Z,14.05
2022-10-12T16:23:57.136Z,13.94
2022-10-12T16:27:00.169Z,13.85
2022-10-12T16:30:03.238Z,13.77
2022-10-12T16:33:07.287Z,13.64
2022-10-12T16:36:11.848Z,13.51
2022-10-12T16:39:14.514Z,13.38
2022-10-12T16:42:17.210Z,13.26
2022-10-12T16:45:19.963Z,13.17
2022-10-12T16:48:23.872Z,13.06
2022-10-12T16:51:26.435Z,12.99
2022-10-12T16:54:29.013Z,12.89
2022-10-12T16:57:32.086Z,12.82
2022-10-12T17:00:34.811Z,12.71
2022-10-12T17:03:38.976Z,12.61
2022-10-12T17:06:41.830Z,12.51
2022-10-12T17:09:44.604Z,12.46
2022-10-12T17:12:47.308Z,12.37
2022-10-12T17:15:50.123Z,12.28
2022-10-12T17:18:59.137Z,12.19
2022-10-12T17:22:04.706Z,12.09
2022-10-12T17:25:07.981Z,11.99
2022-10-12T17:28:10.909Z,11.93
2022-10-12T17:31:13.894Z,11.78
2022-10-12T17:34:21.292Z,11.69
2022-10-12T17:37:24.038Z,11.58
2022-10-12T17:40:26.950Z,11.48
2022-10-12T17:43:29.733Z,11.41
2022-10-12T17:46:32.593Z,11.34
2022-10-12T17:49:36.666Z,11.27
2022-10-12T17:52:40.475Z,11.20
2022-10-12T17:55:48.745Z,11.14
2022-10-12T17:58:54.927Z,11.07
2022-10-12T18:01:57.489Z,11.02
2022-10-12T18:05:01.402Z,10.94
2022-10-12T18:08:03.975Z,10.88
2022-10-12T18:11:08.010Z,10.80
2022-10-12T18:14:11.813Z,10.77
2022-10-12T18:17:14.617Z,10.71
2022-10-12T18:20:19.493Z,10.62
2022-10-12T18:23:22.408Z,10.58
2022-10-12T18:26:27.819Z,10.53
2022-10-12T18:29:30.922Z,10.46
2022-10-12T18:32:34.045Z,10.42
2022-10-12T18:35:41.690Z,10.39
2022-10-12T18:38:44.550Z,10.34
2022-10-12T18:41:51.602Z,10.31
2022-10-12T18:44:54.867Z,10.28
2022-10-12T18:47:57.857Z,10.19
2022-10-12T18:51:06.470Z,10.14
2022-10-12T18:54:12.773Z,10.09
2022-10-12T18:57:15.586Z,10.02
2022-10-12T19:00:19.028Z,9.98
2022-10-12T19:03:22.263Z,9.93
2022-10-12T19:06:28.965Z,9.93
2022-10-12T19:09:32.899Z,9.89
2022-10-12T19:12:36.043Z,9.84
2022-10-12T19:15:39.287Z,9.80
2022-10-12T19:18:42.671Z,9.78
2022-10-12T19:21:46.845Z,9.79
2022-10-12T19:24:49.594Z,9.74
2022-10-12T19:27:52.140Z,9.67
2022-10-12T19:30:54.938Z,9.64
2022-10-12T19:33:58.927Z,9.55
2022-10-12T19:37:03.207Z,9.50
2022-10-12T19:40:07.901Z,9.47
2022-10-12T19:43:10.791Z,9.42
2022-10-12T19:46:14.810Z,9.41
2022-10-12T19:49:18.992Z,9.31
2022-10-12T19:52:23.075Z,9.22
2022-10-12T19:55:26.208Z,9.20
2022-10-12T19:58:29.626Z,9.20
2022-10-12T20:01:34.923Z,9.15
2022-10-12T20:04:38.007Z,9.15
2022-10-12T20:07:42.321Z,9.16
2022-10-12T20:10:46.767Z,9.20
2022-10-12T20:13:53.612Z,9.15
2022-10-12T20:16:56.772Z,9.07
2022-10-12T20:19:59.995Z,9.02
2022-10-12T20:23:04.862Z,8.98
2022-10-12T20:26:10.846Z,8.93
2022-10-12T20:29:13.870Z,8.97
2022-10-12T20:32:17.091Z,9.00
2022-10-12T20:35:19.900Z,8.96
2022-10-12T20:38:25.898Z,8.94
2022-10-12T20:41:29.229Z,8.95
2022-10-12T20:44:32.078Z,8.92
2022-10-12T20:47:35.468Z,8.86
2022-10-12T20:50:38.686Z,8.87
2022-10-12T20:53:42.970Z,8.87
2022-10-12T20:56:49.531Z,8.80
2022-10-12T20:59:52.552Z,8.79
2022-10-12T21:02:55.274Z,8.77
2022-10-12T21:05:58.626Z,8.77
2022-10-12T21:09:02.733Z,8.79
2022-10-12T21:12:05.850Z,8.77
2022-10-12T21:15:09.426Z,8.74
2022-10-12T21:18:12.546Z,8.76
2022-10-12T21:21:19.661Z,8.73
2022-10-12T21:24:23.935Z,8.73
2022-10-12T21:27:26.817Z,8.69
2022-10-12T21:30:29.516Z,8.70
2022-10-12T21:33:32.493Z,8.69
2022-10-12T21:36:36.597Z,8.68
2022-10-12T21:39:40.861Z,8.60
2022-10-12T21:42:43.770Z,8.55
2022-10-12T21:45:46.588Z,8.54
2022-10-12T21:48:50.150Z,8.55
2022-10-12T21:51:54.274Z,8.52
2022-10-12T21:54:58.706Z,8.49
2022-10-12T21:58:02.324Z,8.51
2022-10-12T22:01:07.374Z,8.50
2022-10-12T22:04:13.719Z,8.49
2022-10-12T22:07:16.575Z,8.41
2022-10-12T22:10:20.806Z,8.35
2022-10-12T22:13:23.694Z,8.33
2022-10-12T22:16:27.903Z,8.27
2022-10-12T22:19:32.301Z,8.22
2022-10-12T22:22:35.224Z,8.20
2022-10-12T22:25:39.353Z,8.21
2022-10-12T22:28:42.105Z,8.17
2022-10-12T22:31:46.468Z,8.14
2022-10-12T22:34:49.233Z,8.15
2022-10-12T22:37:52.098Z,8.14
2022-10-12T22:40:57.315Z,8.12
2022-10-12T22:44:00.115Z,8.15
2022-10-12T22:47:03.128Z,8.13
2022-10-12T22:50:06.652Z,8.10
2022-10-12T22:53:09.691Z,8.03
2022-10-12T22:56:17.468Z,8.05
2022-10-12T22:59:21.124Z,8.02
2022-10-12T23:02:23.935Z,8.01
2022-10-12T23:05:27.028Z,7.97
2022-10-12T23:08:30.536Z,7.93
2022-10-12T23:11:34.755Z,7.89
2022-10-12T23:14:37.675Z,7.87
2022-10-12T23:17:43.301Z,7.86
2022-10-12T23:20:46.200Z,7.85
2022-10-12T23:23:49.487Z,7.85
2022-10-12T23:26:53.450Z,7.88
2022-10-12T23:29:56.216Z,7.85
2022-10-12T23:32:58.846Z,7.83
2022-10-12T23:36:03.524Z,7.78
2022-10-12T23:39:06.559Z,7.78
2022-10-12T23:42:10.634Z,7.77
2022-10-12T23:45:13.355Z,7.77
2022-10-12T23:48:16.718Z,7.75
2022-10-12T23:51:19.526Z,7.73
2022-10-12T23:54:22.288Z,7.71
2022-10-12T23:57:45.807Z,7.70
